TimeCDT,TemperatureF,Dew PointF,Humidity,Sea Level PressureIn,VisibilityMPH,Wind Direction,Wind SpeedMPH,Gust SpeedMPH,PrecipitationIn,Events,Conditions,WindDirDegrees,DateUTC
12:15 AM,32.0,21.2,64,30.05,10.0,Calm,Calm,-,N/A,,Scattered Clouds,0,2012-10-10 05:15:00
12:35 AM,30.2,21.2,69,30.05,10.0,Calm,Calm,-,N/A,,Scattered Clouds,0,2012-10-10 05:35:00
12:55 AM,28.4,21.2,74,30.06,10.0,Calm,Calm,-,N/A,,Scattered Clouds,0,2012-10-10 05:55:00
1:14 AM,28.4,21.2,74,30.06,10.0,Calm,Calm,-,N/A,,Clear,0,2012-10-10 06:14:00
1:35 AM,28.4,21.2,74,30.05,10.0,Calm,Calm,-,N/A,,Scattered Clouds,0,2012-10-10 06:35:00
1:55 AM,28.4,21.2,74,30.06,10.0,Calm,Calm,-,N/A,,Mostly Cloudy,0,2012-10-10 06:55:00
2:15 AM,30.2,23.0,75,30.06,10.0,Calm,Calm,-,N/A,,Overcast,0,2012-10-10 07:15:00
2:35 AM,32.0,24.8,75,30.06,10.0,Calm,Calm,-,N/A,,Overcast,0,2012-10-10 07:35:00
2:55 AM,33.8,24.8,70,30.06,10.0,Calm,Calm,-,N/A,,Overcast,0,2012-10-10 07:55:00
3:15 AM,33.8,24.8,70,30.05,10.0,Calm,Calm,-,N/A,,Overcast,0,2012-10-10 08:15:00
3:35 AM,33.8,24.8,70,30.05,10.0,Calm,Calm,-,N/A,,Overcast,0,2012-10-10 08:35:00
3:55 AM,35.6,24.8,65,30.05,10.0,Calm,Calm,-,N/A,,Overcast,0,2012-10-10 08:55:00
4:15 AM,33.8,24.8,70,30.06,10.0,Calm,Calm,-,N/A,,Mostly Cloudy,0,2012-10-10 09:15:00
4:35 AM,32.0,23.0,69,30.06,10.0,Calm,Calm,-,N/A,,Scattered Clouds,0,2012-10-10 09:35:00
4:55 AM,30.2,23.0,75,30.07,10.0,Calm,Calm,-,N/A,,Scattered Clouds,0,2012-10-10 09:55:00
5:15 AM,30.2,23.0,75,30.08,10.0,Calm,Calm,-,N/A,,Scattered Clouds,0,2012-10-10 10:15:00
5:35 AM,30.2,23.0,75,30.08,10.0,Calm,Calm,-,N/A,,Clear,0,2012-10-10 10:35:00
5:55 AM,30.2,23.0,75,30.09,10.0,Calm,Calm,-,N/A,,Clear,0,2012-10-10 10:55:00
6:15 AM,30.2,24.8,80,30.09,10.0,West,4.6,-,N/A,,Clear,270,2012-10-10 11:15:00
6:35 AM,30.2,24.8,80,30.10,10.0,Calm,Calm,-,N/A,,Clear,0,2012-10-10 11:35:00
6:55 AM,28.4,21.2,74,30.10,10.0,Calm,Calm,-,N/A,,Clear,0,2012-10-10 11:55:00
7:15 AM,28.4,24.8,86,30.11,10.0,Calm,Calm,-,N/A,,Clear,0,2012-10-10 12:15:00
7:55 AM,28.4,24.8,86,30.12,10.0,Calm,Calm,-,N/A,,Clear,0,2012-10-10 12:55:00
8:35 AM,33.8,26.6,75,30.14,10.0,Calm,Calm,-,N/A,,Clear,0,2012-10-10 13:35:00
8:55 AM,35.6,26.6,70,30.14,10.0,Calm,Calm,-,N/A,,Clear,0,2012-10-10 13:55:00
9:15 AM,35.6,26.6,70,30.15,10.0,Calm,Calm,-,N/A,,Clear,0,2012-10-10 14:15:00
9:35 AM,39.2,26.6,61,30.15,10.0,Calm,Calm,-,N/A,,Clear,0,2012-10-10 14:35:00
9:55 AM,39.2,28.4,65,30.15,10.0,Calm,Calm,-,N/A,,Clear,0,2012-10-10 14:55:00
10:15 AM,42.8,28.4,57,30.15,10.0,Calm,Calm,-,N/A,,Clear,0,2012-10-10 15:15:00
10:35 AM,42.8,26.6,53,30.14,10.0,Calm,Calm,-,N/A,,Clear,0,2012-10-10 15:35:00
10:55 AM,44.6,26.6,49,30.15,10.0,Calm,Calm,-,N/A,,Clear,0,2012-10-10 15:55:00
11:15 AM,44.6,26.6,49,30.14,10.0,Calm,Calm,-,N/A,,Clear,0,2012-10-10 16:15:00
11:55 AM,46.4,23.0,40,30.14,10.0,WSW,6.9,16.1,N/A,,Clear,240,2012-10-10 16:55:00
12:15 PM,50.0,24.8,37,30.13,10.0,Calm,Calm,-,N/A,,Scattered Clouds,0,2012-10-10 17:15:00
12:35 PM,48.2,23.0,37,30.13,10.0,WSW,12.7,17.3,N/A,,Scattered Clouds,240,2012-10-10 17:35:00
12:55 PM,48.2,23.0,37,30.12,10.0,Calm,Calm,-,N/A,,Scattered Clouds,0,2012-10-10 17:55:00
1:15 PM,50.0,19.4,30,30.11,10.0,WSW,8.1,17.3,N/A,,Scattered Clouds,250,2012-10-10 18:15:00
1:35 PM,51.8,15.8,24,30.10,10.0,WSW,10.4,26.5,N/A,,Clear,240,2012-10-10 18:35:00
1:54 PM,51.8,17.6,26,30.08,10.0,WSW,13.8,17.3,N/A,,Scattered Clouds,250,2012-10-10 18:54:00
2:15 PM,53.6,15.8,22,30.07,10.0,West,10.4,-,N/A,,Clear,260,2012-10-10 19:15:00
2:35 PM,53.6,14.0,21,30.06,10.0,WSW,13.8,21.9,N/A,,Clear,250,2012-10-10 19:35:00
2:55 PM,53.6,14.0,21,30.06,10.0,WSW,15.0,23.0,N/A,,Clear,250,2012-10-10 19:55:00
3:15 PM,53.6,14.0,21,30.06,10.0,WSW,12.7,19.6,N/A,,Clear,250,2012-10-10 20:15:00
3:35 PM,53.6,14.0,21,30.03,10.0,SSW,4.6,-,N/A,,Scattered Clouds,200,2012-10-10 20:35:00
3:55 PM,55.4,12.2,18,30.03,10.0,WSW,13.8,17.3,N/A,,Clear,240,2012-10-10 20:55:00
4:15 PM,55.4,12.2,18,30.02,10.0,SW,11.5,21.9,N/A,,Clear,230,2012-10-10 21:15:00
4:35 PM,55.4,12.2,18,30.02,10.0,SSW,11.5,20.7,N/A,,Scattered Clouds,210,2012-10-10 21:35:00
4:55 PM,55.4,12.2,18,30.01,10.0,WSW,11.5,18.4,N/A,,Scattered Clouds,240,2012-10-10 21:55:00
5:15 PM,55.4,10.4,17,30.00,10.0,Calm,Calm,-,N/A,,Clear,0,2012-10-10 22:15:00
5:35 PM,55.4,12.2,18,29.99,10.0,SSW,4.6,-,N/A,,Clear,210,2012-10-10 22:35:00
5:55 PM,55.4,12.2,18,29.99,10.0,Calm,Calm,-,N/A,,Clear,0,2012-10-10 22:55:00
6:15 PM,55.4,12.2,18,29.98,10.0,Calm,Calm,-,N/A,,Clear,0,2012-10-10 23:15:00
6:35 PM,55.4,12.2,18,29.98,10.0,Calm,Calm,-,N/A,,Clear,0,2012-10-10 23:35:00
7:15 PM,51.8,15.8,24,29.97,10.0,Calm,Calm,-,N/A,,Clear,0,2012-10-11 00:15:00
7:35 PM,51.8,17.6,26,29.97,10.0,Calm,Calm,-,N/A,,Clear,0,2012-10-11 00:35:00
7:55 PM,48.2,17.6,30,29.96,10.0,SSE,9.2,-,N/A,,Clear,160,2012-10-11 00:55:00
8:15 PM,48.2,17.6,30,29.96,10.0,SSE,4.6,-,N/A,,Clear,150,2012-10-11 01:15:00
8:35 PM,48.2,17.6,30,29.95,10.0,SSE,15.0,-,N/A,,Clear,160,2012-10-11 01:35:00
8:55 PM,48.2,19.4,32,29.94,10.0,SSE,12.7,-,N/A,,Clear,160,2012-10-11 01:55:00
9:15 PM,48.2,19.4,32,29.93,10.0,SSE,13.8,-,N/A,,Clear,160,2012-10-11 02:15:00
9:35 PM,46.4,21.2,37,29.92,10.0,South,11.5,-,N/A,,Clear,170,2012-10-11 02:35:00
9:55 PM,46.4,23.0,40,29.92,10.0,South,13.8,-,N/A,,Clear,170,2012-10-11 02:55:00
10:15 PM,48.2,24.8,40,29.91,10.0,South,16.1,-,N/A,,Mostly Cloudy,170,2012-10-11 03:15:00
10:35 PM,48.2,24.8,40,29.89,10.0,South,19.6,-,N/A,,Scattered Clouds,180,2012-10-11 03:35:00
10:55 PM,48.2,24.8,40,29.90,10.0,South,15.0,-,N/A,,Clear,180,2012-10-11 03:55:00
11:15 PM,48.2,26.6,43,29.88,10.0,South,16.1,-,N/A,,Clear,180,2012-10-11 04:15:00
11:35 PM,48.2,26.6,43,29.88,10.0,South,16.1,-,N/A,,Clear,180,2012-10-11 04:35:00
11:55 PM,48.2,26.6,43,29.87,10.0,South,15.0,-,N/A,,Scattered Clouds,190,2012-10-11 04:55:00